createdAt,value
2022-08-22T00:01:22.143Z,12.10
2022-08-22T00:02:41.709Z,4.88
2022-08-22T00:02:49.418Z,5.13
2022-08-22T00:02:57.968Z,17.15
2022-08-22T00:03:53.879Z,14.65
2022-08-22T00:06:20.433Z,13.68
2022-08-22T00:08:30.741Z,17.00
2022-08-22T00:11:06.510Z,17.40
2022-08-22T00:13:18.597Z,14.98
2022-08-22T00:15:42.264Z,12.48
2022-08-22T00:18:27.865Z,15.00
2022-08-22T00:20:41.798Z,10.93
2022-08-22T00:23:12.058Z,12.18
2022-08-22T00:25:58.639Z,14.23
2022-08-22T00:28:14.198Z,13.13
2022-08-22T00:30:18.576Z,17.27
2022-08-22T00:32:29.111Z,12.57
2022-08-22T00:34:48.645Z,12.98
2022-08-22T00:37:06.862Z,18.13
2022-08-22T00:39:30.215Z,18.02
2022-08-22T00:41:58.228Z,16.45
2022-08-22T00:44:22.377Z,18.83
2022-08-22T00:46:55.904Z,13.88
2022-08-22T00:49:03.659Z,16.00
2022-08-22T00:51:46.682Z,11.93
2022-08-22T00:53:58.585Z,13.35
2022-08-22T00:56:21.781Z,16.23
2022-08-22T00:58:41.771Z,16.50
2022-08-22T01:00:54.691Z,16.05
2022-08-22T01:03:02.910Z,15.18
2022-08-22T01:05:49.134Z,19.55
2022-08-22T01:08:28.680Z,15.82
2022-08-22T01:10:33.741Z,15.63
2022-08-22T01:12:54.622Z,16.45
2022-08-22T01:15:07.447Z,22.35
2022-08-22T01:17:31.358Z,18.15
2022-08-22T01:19:43.409Z,18.08
2022-08-22T01:22:07.765Z,13.30
2022-08-22T01:24:27.498Z,14.13
2022-08-22T01:26:58.317Z,18.80
2022-08-22T01:29:19.140Z,14.05
2022-08-22T01:32:09.899Z,20.52
2022-08-22T01:35:00.361Z,16.40
2022-08-22T01:37:14.995Z,11.38
2022-08-22T01:39:40.627Z,19.13
2022-08-22T01:42:01.267Z,19.23
2022-08-22T01:44:34.158Z,17.20
2022-08-22T01:46:54.001Z,19.80
2022-08-22T01:49:06.648Z,17.50
2022-08-22T01:51:28.510Z,19.63
2022-08-22T01:54:11.088Z,21.55
2022-08-22T01:56:18.451Z,16.88
2022-08-22T01:58:25.220Z,19.98
2022-08-22T02:00:35.298Z,26.27
2022-08-22T02:03:07.489Z,16.38
2022-08-22T02:05:37.507Z,20.35
2022-08-22T02:07:48.602Z,15.80
2022-08-22T02:10:05.515Z,19.98
2022-08-22T02:12:21.897Z,16.05
2022-08-22T02:14:33.152Z,21.63
2022-08-22T02:17:07.530Z,22.20
2022-08-22T02:19:15.924Z,26.98
2022-08-22T02:21:47.326Z,26.85
2022-08-22T02:24:05.807Z,29.65
2022-08-22T02:26:17.034Z,32.95
2022-08-22T02:28:57.479Z,41.55
2022-08-22T02:31:12.149Z,38.22
2022-08-22T02:33:43.039Z,34.88
2022-08-22T02:36:16.256Z,35.53
2022-08-22T02:38:47.444Z,39.13
2022-08-22T02:40:52.976Z,34.38
2022-08-22T02:43:19.194Z,39.90
2022-08-22T02:45:46.390Z,39.95
2022-08-22T02:47:51.387Z,42.00
2022-08-22T02:50:23.754Z,45.65
2022-08-22T02:53:03.196Z,52.45
2022-08-22T02:55:38.010Z,43.72
2022-08-22T02:58:04.853Z,51.53
2022-08-22T03:00:31.289Z,40.05
2022-08-22T03:02:39.580Z,47.45
2022-08-22T03:04:41.651Z,42.47
2022-08-22T03:06:59.677Z,42.83
2022-08-22T03:09:16.954Z,40.38
2022-08-22T03:11:29.758Z,42.58
2022-08-22T03:13:56.282Z,41.30
2022-08-22T03:16:07.051Z,48.63
2022-08-22T03:18:44.629Z,35.35
2022-08-22T03:20:59.375Z,43.53
2022-08-22T03:23:10.028Z,41.33
2022-08-22T03:25:25.636Z,46.38
2022-08-22T03:27:34.805Z,42.75
2022-08-22T03:29:44.289Z,42.33
2022-08-22T03:32:11.873Z,38.30
2022-08-22T03:34:27.383Z,32.75
2022-08-22T03:36:31.503Z,39.65
2022-08-22T03:38:33.467Z,28.67
2022-08-22T03:40:58.256Z,33.47
2022-08-22T03:43:54.189Z,29.95
2022-08-22T03:46:21.720Z,31.48
2022-08-22T03:48:42.461Z,32.35
2022-08-22T03:51:21.413Z,30.67
2022-08-22T03:53:32.351Z,33.85
2022-08-22T03:56:11.725Z,24.58
2022-08-22T03:58:38.710Z,30.67
2022-08-22T04:00:56.688Z,32.45
2022-08-22T04:03:22.620Z,23.50
2022-08-22T04:06:02.266Z,19.95
2022-08-22T04:08:16.527Z,28.50
2022-08-22T04:10:56.636Z,26.33
2022-08-22T04:13:24.765Z,29.88
2022-08-22T04:15:45.857Z,20.65
2022-08-22T04:17:54.315Z,28.48
2022-08-22T04:20:09.800Z,30.00
2022-08-22T04:22:38.057Z,20.90
2022-08-22T04:24:56.727Z,22.45
2022-08-22T04:27:19.303Z,24.80
2022-08-22T04:29:30.938Z,23.17
2022-08-22T04:31:46.397Z,20.77
2022-08-22T04:34:01.131Z,20.42
2022-08-22T04:36:22.083Z,19.55
2022-08-22T04:38:30.147Z,20.02
2022-08-22T04:40:43.770Z,19.25
2022-08-22T04:43:22.081Z,18.13
2022-08-22T04:45:52.365Z,20.10
2022-08-22T04:48:07.469Z,16.45
2022-08-22T04:50:22.342Z,19.63
2022-08-22T04:52:43.081Z,17.08
2022-08-22T04:54:57.570Z,19.42
2022-08-22T04:57:28.432Z,18.42
2022-08-22T04:59:31.291Z,16.65
2022-08-22T05:01:55.586Z,16.63
2022-08-22T05:04:13.341Z,15.18
2022-08-22T05:06:19.295Z,14.75
2022-08-22T05:08:31.441Z,16.73
2022-08-22T05:10:42.984Z,14.25
2022-08-22T05:13:00.876Z,11.10
2022-08-22T05:15:10.332Z,11.18
2022-08-22T05:17:21.486Z,16.10
2022-08-22T05:19:32.230Z,13.68
2022-08-22T05:21:41.080Z,16.05
2022-08-22T05:24:14.316Z,18.10
2022-08-22T05:26:18.868Z,13.23
2022-08-22T05:28:39.011Z,12.63
2022-08-22T05:30:43.437Z,15.18
2022-08-22T05:33:09.997Z,19.92
2022-08-22T05:35:12.572Z,12.75
2022-08-22T05:37:20.513Z,12.98
2022-08-22T05:39:28.045Z,14.32
2022-08-22T05:41:38.411Z,14.63
2022-08-22T05:43:43.877Z,13.88
2022-08-22T05:45:48.216Z,13.65
2022-08-22T05:47:59.951Z,17.88
2022-08-22T05:50:13.038Z,13.90
2022-08-22T05:52:46.028Z,14.23
2022-08-22T05:55:01.525Z,16.17
2022-08-22T05:57:37.150Z,15.13
2022-08-22T05:59:43.616Z,16.05
2022-08-22T06:01:58.034Z,13.63
2022-08-22T06:04:15.468Z,16.80
2022-08-22T06:06:20.008Z,16.30
2022-08-22T06:08:23.670Z,17.45
2022-08-22T06:10:43.998Z,14.38
2022-08-22T06:12:59.900Z,15.25
2022-08-22T06:15:12.539Z,14.07
2022-08-22T06:17:25.517Z,17.40
2022-08-22T06:19:28.939Z,15.30
2022-08-22T06:21:38.668Z,18.20
2022-08-22T06:23:48.119Z,16.45
2022-08-22T06:25:55.262Z,17.33
2022-08-22T06:28:02.699Z,18.10
2022-08-22T06:30:07.285Z,16.70
2022-08-22T06:32:58.330Z,15.73
2022-08-22T06:35:10.828Z,13.25
2022-08-22T06:37:31.823Z,15.60
2022-08-22T06:39:37.511Z,16.70
2022-08-22T06:41:45.403Z,14.77
2022-08-22T06:43:53.007Z,15.50
2022-08-22T06:45:55.860Z,16.38
2022-08-22T06:48:16.976Z,14.20
2022-08-22T06:50:31.181Z,18.48
2022-08-22T06:52:37.839Z,15.77
2022-08-22T06:54:45.568Z,13.88
2022-08-22T06:56:51.285Z,14.73
2022-08-22T06:58:58.538Z,16.95
2022-08-22T07:01:12.188Z,17.02
2022-08-22T07:03:43.807Z,15.30
2022-08-22T07:05:47.856Z,13.82
2022-08-22T07:07:51.404Z,15.25
2022-08-22T07:09:57.920Z,13.77
2022-08-22T07:12:03.461Z,13.68
2022-08-22T07:14:12.305Z,17.00
2022-08-22T07:16:15.559Z,16.13
2022-08-22T07:18:21.800Z,19.58
2022-08-22T07:20:28.757Z,14.40
2022-08-22T07:22:35.428Z,15.77
2022-08-22T07:24:48.404Z,16.45
2022-08-22T07:27:10.112Z,13.98
2022-08-22T07:29:23.148Z,14.30
2022-08-22T07:31:34.811Z,16.15
2022-08-22T07:33:48.855Z,14.38
2022-08-22T07:36:05.261Z,11.98
2022-08-22T07:38:43.132Z,13.15
2022-08-22T07:41:16.489Z,18.85
2022-08-22T07:43:46.710Z,13.60
2022-08-22T07:45:57.069Z,14.25
2022-08-22T07:48:24.862Z,17.40
2022-08-22T07:50:36.699Z,13.57
2022-08-22T07:53:10.006Z,14.13
2022-08-22T07:55:26.397Z,12.50
2022-08-22T07:57:33.452Z,13.27
2022-08-22T07:59:41.187Z,14.10
2022-08-22T08:01:51.409Z,10.77
2022-08-22T08:04:01.912Z,13.07
2022-08-22T08:06:05.098Z,12.95
2022-08-22T08:08:20.251Z,11.25
2022-08-22T08:10:28.644Z,12.50
2022-08-22T08:12:40.365Z,15.45
2022-08-22T08:14:46.432Z,15.07
2022-08-22T08:17:03.808Z,12.27
2022-08-22T08:19:08.465Z,16.88
2022-08-22T08:21:34.329Z,16.98
2022-08-22T08:23:46.501Z,10.77
2022-08-22T08:25:55.036Z,11.27
2022-08-22T08:28:19.988Z,13.00
2022-08-22T08:30:32.416Z,11.70
2022-08-22T08:32:38.038Z,14.23
2022-08-22T08:34:46.996Z,12.00
2022-08-22T08:36:55.436Z,13.32
2022-08-22T08:39:35.004Z,13.20
2022-08-22T08:41:49.430Z,13.50
2022-08-22T08:43:57.253Z,10.82
2022-08-22T08:46:26.274Z,10.90
2022-08-22T08:48:47.404Z,9.98
2022-08-22T08:51:09.274Z,12.45
2022-08-22T08:56:07.198Z,11.75
2022-08-22T08:58:40.144Z,9.63
2022-08-22T09:00:46.017Z,11.57
2022-08-22T09:03:21.162Z,10.75
2022-08-22T09:05:53.064Z,10.23
2022-08-22T09:08:01.765Z,9.95
2022-08-22T09:10:27.390Z,12.90
2022-08-22T09:13:12.245Z,12.63
2022-08-22T09:15:38.993Z,11.55
2022-08-22T09:17:44.566Z,12.38
2022-08-22T09:22:27.905Z,8.32
2022-08-22T09:25:15.154Z,9.60
2022-08-22T09:27:50.190Z,11.25
2022-08-22T09:30:02.637Z,8.65
2022-08-22T09:35:22.437Z,9.98
2022-08-22T09:37:55.747Z,10.05
2022-08-22T09:40:06.340Z,8.93
2022-08-22T09:40:16.672Z,12.40
2022-08-22T09:42:38.778Z,7.30
2022-08-22T09:45:11.908Z,10.35
2022-08-22T09:47:41.971Z,11.55
2022-08-22T09:49:45.093Z,11.20
2022-08-22T09:52:34.233Z,8.57
2022-08-22T09:54:48.674Z,10.80
2022-08-22T09:57:01.756Z,8.98
2022-08-22T09:59:14.817Z,7.55
2022-08-22T10:01:33.583Z,10.00
2022-08-22T10:04:13.419Z,10.43
2022-08-22T10:06:27.769Z,12.32
2022-08-22T10:08:50.750Z,11.43
2022-08-22T10:11:12.041Z,11.13
2022-08-22T10:13:33.080Z,8.70
2022-08-22T10:16:02.196Z,11.95
2022-08-22T10:18:28.985Z,10.63
2022-08-22T10:20:44.761Z,9.05
2022-08-22T10:23:15.058Z,10.23
2022-08-22T10:25:34.963Z,10.95
2022-08-22T10:28:17.992Z,9.70
2022-08-22T10:30:31.252Z,7.38
2022-08-22T10:33:03.855Z,7.63
2022-08-22T10:35:19.990Z,10.35
2022-08-22T10:37:36.817Z,8.75
2022-08-22T10:39:57.932Z,9.85
2022-08-22T10:42:28.200Z,7.28
2022-08-22T10:44:56.683Z,8.07
2022-08-22T10:47:24.416Z,6.85
2022-08-22T10:49:35.387Z,7.82
2022-08-22T10:52:00.062Z,9.15
2022-08-22T10:54:29.893Z,6.15
2022-08-22T10:56:40.613Z,6.78
2022-08-22T10:58:56.396Z,6.95
2022-08-22T11:01:37.824Z,7.80
2022-08-22T11:03:35.485Z,6.25
2022-08-22T11:05:50.034Z,6.88
2022-08-22T11:07:56.215Z,6.60
2022-08-22T11:10:09.579Z,6.93
2022-08-22T11:12:28.183Z,8.07
2022-08-22T11:15:34.384Z,8.43
2022-08-22T11:18:05.381Z,5.25
2022-08-22T11:20:21.351Z,4.80
2022-08-22T11:22:33.787Z,5.28
2022-08-22T11:25:06.862Z,6.13
2022-08-22T11:27:39.531Z,5.78
2022-08-22T11:30:02.303Z,5.45
2022-08-22T11:32:29.802Z,7.05
2022-08-22T11:34:50.129Z,5.78
2022-08-22T11:37:15.176Z,4.03
2022-08-22T11:39:34.203Z,7.15
2022-08-22T11:41:52.545Z,4.30
2022-08-22T11:44:03.413Z,8.05
2022-08-22T11:46:28.233Z,3.80
2022-08-22T11:48:47.386Z,3.50
2022-08-22T11:51:13.396Z,3.28
2022-08-22T11:53:28.356Z,3.45
2022-08-22T11:55:35.261Z,4.82
2022-08-22T11:57:45.160Z,4.22
2022-08-22T12:00:13.895Z,4.10
2022-08-22T12:02:27.258Z,3.65
2022-08-22T12:04:42.502Z,4.40
2022-08-22T12:07:12.869Z,4.70
2022-08-22T12:10:07.557Z,5.10
2022-08-22T12:12:21.615Z,5.70
2022-08-22T12:14:50.090Z,4.25
2022-08-22T12:17:55.081Z,3.30
2022-08-22T12:20:15.073Z,4.78
2022-08-22T12:22:55.523Z,5.43
2022-08-22T12:25:17.980Z,5.60
2022-08-22T12:27:47.973Z,5.30
2022-08-22T12:30:14.239Z,5.53
2022-08-22T12:32:36.565Z,4.88
2022-08-22T12:35:13.513Z,4.28
2022-08-22T12:37:52.273Z,5.25
2022-08-22T12:40:36.570Z,4.15
2022-08-22T12:43:10.444Z,4.53
2022-08-22T12:45:50.715Z,5.38
2022-08-22T12:48:12.249Z,3.80
2022-08-22T12:50:35.874Z,4.47
2022-08-22T12:52:47.032Z,6.13
2022-08-22T12:55:25.043Z,4.00
2022-08-22T12:57:37.203Z,11.15
2022-08-22T12:59:45.350Z,9.10
2022-08-22T13:01:51.469Z,8.35
2022-08-22T13:04:01.377Z,9.07
2022-08-22T13:06:25.395Z,9.30
2022-08-22T13:08:37.217Z,6.93
2022-08-22T13:10:51.283Z,8.93
2022-08-22T13:12:56.981Z,4.35
2022-08-22T13:15:16.774Z,2.30
2022-08-22T13:17:24.997Z,4.10
2022-08-22T13:19:32.278Z,2.88
2022-08-22T13:21:43.398Z,3.03
2022-08-22T13:23:53.920Z,4.22
2022-08-22T13:26:31.588Z,4.05
2022-08-22T13:31:39.321Z,4.45
2022-08-22T13:33:48.044Z,2.97
2022-08-22T13:35:56.468Z,3.72
2022-08-22T13:38:12.255Z,3.92
2022-08-22T13:40:27.293Z,3.25
2022-08-22T13:42:36.490Z,3.10
2022-08-22T13:44:48.460Z,3.42
2022-08-22T13:47:12.939Z,4.93
2022-08-22T13:49:19.860Z,3.53
2022-08-22T13:51:28.813Z,3.10
2022-08-22T13:53:50.015Z,3.08
2022-08-22T13:56:15.636Z,2.85
2022-08-22T13:58:42.244Z,4.68
2022-08-22T14:01:14.283Z,3.78
2022-08-22T14:03:22.364Z,3.78
2022-08-22T14:05:41.632Z,2.53
2022-08-22T14:08:12.703Z,2.78
2022-08-22T14:10:29.636Z,3.00
2022-08-22T14:12:50.162Z,5.07
2022-08-22T14:14:59.651Z,2.65
2022-08-22T14:17:02.955Z,5.15
2022-08-22T14:19:29.508Z,4.25
2022-08-22T14:21:41.400Z,3.88
2022-08-22T14:23:45.099Z,3.75
2022-08-22T14:25:48.445Z,3.05
2022-08-22T14:27:52.542Z,4.60
2022-08-22T14:30:01.757Z,2.75
2022-08-22T14:32:32.255Z,2.28
2022-08-22T14:34:45.375Z,2.97
2022-08-22T14:36:56.585Z,2.13
2022-08-22T14:39:31.718Z,2.13
2022-08-22T14:41:57.963Z,3.10
2022-08-22T14:44:39.511Z,2.63
2022-08-22T14:46:52.160Z,3.78
2022-08-22T14:49:16.200Z,2.60
2022-08-22T14:51:26.824Z,2.15
2022-08-22T14:53:35.037Z,1.73
2022-08-22T14:55:39.974Z,1.70
2022-08-22T14:57:51.181Z,2.65
2022-08-22T14:59:54.686Z,2.67
2022-08-22T15:02:01.952Z,1.90
2022-08-22T15:04:18.839Z,2.45
2022-08-22T15:06:38.261Z,2.05
2022-08-22T15:08:50.945Z,1.98
2022-08-22T15:11:31.891Z,2.83
2022-08-22T15:13:36.179Z,2.03
2022-08-22T15:15:52.576Z,2.20
2022-08-22T15:17:55.842Z,1.95
2022-08-22T15:20:22.744Z,2.72
2022-08-22T15:22:29.810Z,2.63
2022-08-22T15:24:32.894Z,2.30
2022-08-22T15:26:40.553Z,2.05
2022-08-22T15:28:52.464Z,2.80
2022-08-22T15:31:05.463Z,1.98
2022-08-22T15:33:10.602Z,2.00
2022-08-22T15:35:39.128Z,2.00
2022-08-22T15:38:31.608Z,2.03
2022-08-22T15:40:36.665Z,2.25
2022-08-22T15:42:49.033Z,4.40
2022-08-22T15:44:55.079Z,3.72
2022-08-22T15:47:02.689Z,4.10
2022-08-22T15:49:19.541Z,3.95
2022-08-22T15:51:48.029Z,2.80
2022-08-22T15:54:03.443Z,2.80
2022-08-22T15:56:26.185Z,2.42
2022-08-22T15:58:28.571Z,2.75
2022-08-22T16:00:34.725Z,2.67
2022-08-22T16:02:55.903Z,2.97
2022-08-22T16:05:10.410Z,2.08
2022-08-22T16:07:39.747Z,4.25
2022-08-22T16:09:47.578Z,2.75
2022-08-22T16:11:55.704Z,3.47
2022-08-22T16:14:21.903Z,2.30
2022-08-22T16:16:26.492Z,1.73
2022-08-22T16:18:34.507Z,3.15
2022-08-22T16:20:36.256Z,2.25
2022-08-22T16:22:56.702Z,2.08
2022-08-22T16:25:01.645Z,2.30
2022-08-22T16:27:22.742Z,2.00
2022-08-22T16:29:41.165Z,2.10
2022-08-22T16:31:46.471Z,2.08
2022-08-22T16:33:48.426Z,1.95
2022-08-22T16:36:14.897Z,2.03
2022-08-22T16:38:36.732Z,2.08
2022-08-22T16:40:48.610Z,3.10
2022-08-22T16:43:09.895Z,2.33
2022-08-22T16:45:14.478Z,2.20
2022-08-22T16:47:19.298Z,2.22
2022-08-22T16:49:32.202Z,2.53
2022-08-22T16:51:34.271Z,1.70
2022-08-22T16:53:39.018Z,1.63
2022-08-22T16:56:05.787Z,1.67
2022-08-22T16:58:40.040Z,1.83
2022-08-22T17:01:03.441Z,1.75
2022-08-22T17:03:29.272Z,1.67
2022-08-22T17:06:17.523Z,4.47
2022-08-22T17:08:28.093Z,2.00
2022-08-22T17:10:48.130Z,5.13
2022-08-22T17:13:06.379Z,4.10
2022-08-22T17:15:08.291Z,2.85
2022-08-22T17:17:22.504Z,3.35
2022-08-22T17:19:59.980Z,7.45
2022-08-22T17:22:11.054Z,5.53
2022-08-22T17:24:33.970Z,5.07
2022-08-22T17:26:55.715Z,3.35
2022-08-22T17:29:03.704Z,4.90
2022-08-22T17:31:24.946Z,3.35
2022-08-22T17:33:33.410Z,3.10
2022-08-22T17:36:04.409Z,4.45
2022-08-22T17:38:45.423Z,4.70
2022-08-22T17:41:14.354Z,6.60
2022-08-22T17:43:18.522Z,5.45
2022-08-22T17:45:35.375Z,4.13
2022-08-22T17:47:49.832Z,4.40
2022-08-22T17:50:00.900Z,3.60
2022-08-22T17:52:32.582Z,3.17
2022-08-22T17:55:06.623Z,3.10
2022-08-22T17:57:24.903Z,4.03
2022-08-22T17:59:37.252Z,3.92
2022-08-22T18:02:18.949Z,2.95
2022-08-22T18:04:33.554Z,2.95
2022-08-22T18:06:44.219Z,3.20
2022-08-22T18:11:43.163Z,4.15
2022-08-22T18:13:59.138Z,3.55
2022-08-22T18:16:29.533Z,3.78
2022-08-22T18:18:37.447Z,3.30
2022-08-22T18:20:57.448Z,4.07
2022-08-22T18:23:15.324Z,4.53
2022-08-22T18:25:23.642Z,5.20
2022-08-22T18:27:30.045Z,5.57
2022-08-22T18:29:49.733Z,5.57
2022-08-22T18:32:17.072Z,5.78
2022-08-22T18:34:30.163Z,5.30
2022-08-22T18:36:38.260Z,5.43
2022-08-22T18:38:55.662Z,4.65
2022-08-22T18:41:03.814Z,4.15
2022-08-22T18:43:14.724Z,3.10
2022-08-22T18:45:48.216Z,2.80
2022-08-22T18:47:57.080Z,4.43
2022-08-22T18:50:01.030Z,2.85
2022-08-22T18:52:06.094Z,2.85
2022-08-22T18:54:07.752Z,3.88
2022-08-22T18:56:30.949Z,4.53
2022-08-22T18:59:05.561Z,4.60
2022-08-22T19:01:23.517Z,5.57
2022-08-22T19:03:52.457Z,7.30
2022-08-22T19:06:15.635Z,5.28
2022-08-22T19:08:34.761Z,6.43
2022-08-22T19:10:56.317Z,5.07
2022-08-22T19:13:09.004Z,6.20
2022-08-22T19:15:13.788Z,6.72
2022-08-22T19:17:42.943Z,4.38
2022-08-22T19:20:19.943Z,4.78
2022-08-22T19:22:21.860Z,3.75
2022-08-22T19:24:26.614Z,3.75
2022-08-22T19:26:33.794Z,3.28
2022-08-22T19:28:37.913Z,4.60
2022-08-22T19:30:40.887Z,4.25
2022-08-22T19:32:43.906Z,2.97
2022-08-22T19:34:48.039Z,2.83
2022-08-22T19:37:32.834Z,3.53
2022-08-22T19:39:54.847Z,4.60
2022-08-22T19:41:58.370Z,4.30
2022-08-22T19:44:00.841Z,3.40
2022-08-22T19:46:09.559Z,3.30
2022-08-22T19:48:14.774Z,2.72
2022-08-22T19:50:16.872Z,3.15
2022-08-22T19:52:44.666Z,3.97
2022-08-22T19:54:49.592Z,4.63
2022-08-22T19:57:19.735Z,5.88
2022-08-22T19:59:34.298Z,2.80
2022-08-22T20:01:56.522Z,4.03
2022-08-22T20:04:48.612Z,3.95
2022-08-22T20:07:14.798Z,3.60
2022-08-22T20:09:45.936Z,2.55
2022-08-22T20:12:09.208Z,3.30
2022-08-22T20:14:28.488Z,2.63
2022-08-22T20:16:59.660Z,4.35
2022-08-22T20:19:08.358Z,3.13
2022-08-22T20:21:11.503Z,2.55
2022-08-22T20:23:25.209Z,3.63
2022-08-22T20:25:44.029Z,3.20
2022-08-22T20:27:50.622Z,5.30
2022-08-22T20:30:17.214Z,3.13
2022-08-22T20:32:23.552Z,2.60
2022-08-22T20:34:28.899Z,3.17
2022-08-22T20:36:32.061Z,2.90
2022-08-22T20:38:55.595Z,2.88
2022-08-22T20:41:24.300Z,3.55
2022-08-22T20:43:35.205Z,2.80
2022-08-22T20:45:42.523Z,5.50
2022-08-22T20:47:50.898Z,4.30
2022-08-22T20:49:57.389Z,3.72
2022-08-22T20:52:00.477Z,4.13
2022-08-22T20:54:18.890Z,2.60
2022-08-22T20:56:38.856Z,3.83
2022-08-22T20:59:00.538Z,7.00
2022-08-22T21:01:04.202Z,4.88
2022-08-22T21:03:28.394Z,2.47
2022-08-22T21:05:39.117Z,3.75
2022-08-22T21:07:46.932Z,4.85
2022-08-22T21:10:36.641Z,4.63
2022-08-22T21:12:41.284Z,3.55
2022-08-22T21:14:46.460Z,4.10
2022-08-22T21:16:49.044Z,3.25
2022-08-22T21:18:54.181Z,4.13
2022-08-22T21:21:18.777Z,3.58
2022-08-22T21:23:21.143Z,2.97
2022-08-22T21:25:26.258Z,3.78
2022-08-22T21:27:32.305Z,5.32
2022-08-22T21:29:43.982Z,7.43
2022-08-22T21:32:04.401Z,4.63
2022-08-22T21:34:27.257Z,2.78
2022-08-22T21:36:32.005Z,3.20
2022-08-22T21:38:34.630Z,2.88
2022-08-22T21:40:38.336Z,2.58
2022-08-22T21:42:43.104Z,3.22
2022-08-22T21:45:02.850Z,4.25
2022-08-22T21:47:30.658Z,3.78
2022-08-22T21:49:33.890Z,2.95
2022-08-22T21:51:45.198Z,6.38
2022-08-22T21:53:47.753Z,6.78
2022-08-22T21:56:13.299Z,4.05
2022-08-22T21:58:18.470Z,5.47
2022-08-22T22:00:48.864Z,5.38
2022-08-22T22:02:59.538Z,3.60
2022-08-22T22:05:04.856Z,3.85
2022-08-22T22:07:09.583Z,4.55
2022-08-22T22:09:15.267Z,3.15
2022-08-22T22:11:18.276Z,3.20
2022-08-22T22:13:21.165Z,4.40
2022-08-22T22:15:34.850Z,4.50
2022-08-22T22:17:37.107Z,3.85
2022-08-22T22:19:39.447Z,3.25
2022-08-22T22:21:41.725Z,4.00
2022-08-22T22:23:44.293Z,4.22
2022-08-22T22:25:47.655Z,3.42
2022-08-22T22:27:50.387Z,7.47
2022-08-22T22:29:52.774Z,6.72
2022-08-22T22:31:55.383Z,3.88
2022-08-22T22:33:57.568Z,3.70
2022-08-22T22:36:06.086Z,8.43
2022-08-22T22:38:08.786Z,3.70
2022-08-22T22:40:12.312Z,3.42
2022-08-22T22:42:15.102Z,5.90
2022-08-22T22:44:17.361Z,3.78
2022-08-22T22:46:26.947Z,3.58
2022-08-22T22:48:32.217Z,4.82
2022-08-22T22:50:38.170Z,3.90
2022-08-22T22:52:40.853Z,5.13
2022-08-22T22:54:43.212Z,9.18
2022-08-22T22:56:47.987Z,3.55
2022-08-22T22:59:00.624Z,3.78
2022-08-22T23:01:24.331Z,3.60
2022-08-22T23:03:26.996Z,5.25
2022-08-22T23:05:33.398Z,6.55
2022-08-22T23:07:36.048Z,6.88
2022-08-22T23:09:44.733Z,3.80
2022-08-22T23:11:47.984Z,5.15
2022-08-22T23:13:51.093Z,5.30
2022-08-22T23:15:53.409Z,3.95
2022-08-22T23:17:56.003Z,5.78
2022-08-22T23:20:01.488Z,7.13
2022-08-22T23:22:03.968Z,3.67
2022-08-22T23:24:07.821Z,4.93
2022-08-22T23:26:13.532Z,3.63
2022-08-22T23:28:15.878Z,4.55
2022-08-22T23:30:18.243Z,3.78
2022-08-22T23:32:20.436Z,4.63
2022-08-22T23:34:29.887Z,3.90
2022-08-22T23:36:32.769Z,4.05
2022-08-22T23:38:35.259Z,3.05
2022-08-22T23:40:37.463Z,5.13
2022-08-22T23:42:39.645Z,6.45
2022-08-22T23:44:45.472Z,5.40
2022-08-22T23:46:48.633Z,3.38
2022-08-22T23:48:51.079Z,6.75
2022-08-22T23:50:56.100Z,8.57
2022-08-22T23:52:58.320Z,8.07
2022-08-22T23:55:00.517Z,6.85
2022-08-22T23:57:12.056Z,3.55
2022-08-22T23:59:17.752Z,6.68
